createdAt,value
2019-04-06T00:00:10.396Z,1008.2501
2019-04-06T00:00:22.334Z,1008.2453
2019-04-06T00:00:34.177Z,1008.2238
2019-04-06T00:00:46.110Z,1008.2606
2019-04-06T00:00:57.947Z,1008.2927
2019-04-06T00:01:09.802Z,1008.2584
2019-04-06T00:01:21.861Z,1008.2672
2019-04-06T00:01:33.766Z,1008.301
2019-04-06T00:01:45.617Z,1008.2249
2019-04-06T00:01:57.566Z,1008.2683
2019-04-06T00:02:09.421Z,1008.2594
2019-04-06T00:02:21.315Z,1008.2764
2019-04-06T00:02:33.160Z,1008.3306
2019-04-06T00:02:44.988Z,1008.2667
2019-04-06T00:02:56.920Z,1008.2781
2019-04-06T00:03:08.784Z,1008.2638
2019-04-06T00:03:20.692Z,1008.2945
2019-04-06T00:03:32.587Z,1008.2862
2019-04-06T00:03:44.489Z,1008.2847
2019-04-06T00:03:56.546Z,1008.2536
2019-04-06T00:04:08.389Z,1008.2585
2019-04-06T00:04:20.285Z,1008.2584
2019-04-06T00:04:32.201Z,1008.2667
2019-04-06T00:04:44.113Z,1008.2452
2019-04-06T00:04:55.984Z,1008.2523
2019-04-06T00:05:07.926Z,1008.2507
2019-04-06T00:05:19.787Z,1008.2781
2019-04-06T00:05:31.653Z,1008.259
2019-04-06T00:05:43.492Z,1008.2785
2019-04-06T00:05:55.333Z,1008.2737
2019-04-06T00:06:07.280Z,1008.27
2019-04-06T00:06:19.154Z,1008.238
2019-04-06T00:06:31.058Z,1008.2545
2019-04-06T00:06:43.056Z,1008.2414
2019-04-06T00:06:54.933Z,1008.2167
2019-04-06T00:07:06.821Z,1008.247
2019-04-06T00:07:18.791Z,1008.2245
2019-04-06T00:07:30.607Z,1008.259
2019-04-06T00:07:42.542Z,1008.2463
2019-04-06T00:07:54.453Z,1008.1954
2019-04-06T00:08:06.296Z,1008.2129
2019-04-06T00:08:18.194Z,1008.1956
2019-04-06T00:08:30.055Z,1008.2267
2019-04-06T00:08:41.900Z,1008.2217
2019-04-06T00:08:53.749Z,1008.2058
2019-04-06T00:09:05.597Z,1008.2167
2019-04-06T00:09:17.509Z,1008.2069
2019-04-06T00:09:29.362Z,1008.2081
2019-04-06T00:09:41.262Z,1008.2249
2019-04-06T00:09:53.166Z,1008.2299
2019-04-06T00:10:05.017Z,1008.2295
2019-04-06T00:10:16.987Z,1008.1713
2019-04-06T00:10:28.833Z,1008.2332
2019-04-06T00:10:40.738Z,1008.2451
2019-04-06T00:10:55.037Z,1008.2479
2019-04-06T00:11:05.629Z,1008.2136
2019-04-06T00:11:17.504Z,1008.1893
2019-04-06T00:11:29.369Z,1008.2271
2019-04-06T00:11:41.279Z,1008.2321
2019-04-06T00:11:53.153Z,1008.186
2019-04-06T00:12:05.098Z,1008.2156
2019-04-06T00:12:17.072Z,1008.1882
2019-04-06T00:12:28.910Z,1008.2309
2019-04-06T00:12:40.842Z,1008.2391
2019-04-06T00:12:52.738Z,1008.2068
2019-04-06T00:13:04.584Z,1008.2748
2019-04-06T00:13:16.583Z,1008.2703
2019-04-06T00:13:28.449Z,1008.2801
2019-04-06T00:13:40.327Z,1008.3157
2019-04-06T00:13:52.688Z,1008.2769
2019-04-06T00:14:04.572Z,1008.2736
2019-04-06T00:14:16.446Z,1008.2917
2019-04-06T00:14:28.300Z,1008.2896
2019-04-06T00:14:40.146Z,1008.2654
2019-04-06T00:14:52.002Z,1008.2899
2019-04-06T00:15:03.914Z,1008.2933
2019-04-06T00:15:15.848Z,1008.2929
2019-04-06T00:15:27.776Z,1008.2692
2019-04-06T00:15:39.693Z,1008.2977
2019-04-06T00:15:51.613Z,1008.2917
2019-04-06T00:16:03.468Z,1008.249
2019-04-06T00:16:15.328Z,1008.2949
2019-04-06T00:16:27.237Z,1008.2807
2019-04-06T00:16:39.063Z,1008.2878
2019-04-06T00:16:50.974Z,1008.2803
2019-04-06T00:17:02.843Z,1008.2232
2019-04-06T00:17:14.749Z,1008.2867
2019-04-06T00:17:26.640Z,1008.2703
2019-04-06T00:17:38.482Z,1008.2407
2019-04-06T00:17:50.393Z,1008.2742
2019-04-06T00:18:02.242Z,1008.2703
2019-04-06T00:18:14.173Z,1008.2523
2019-04-06T00:18:26.050Z,1008.2429
2019-04-06T00:18:37.929Z,1008.2518
2019-04-06T00:18:49.882Z,1008.2321
2019-04-06T00:19:01.741Z,1008.244
2019-04-06T00:19:13.569Z,1008.2189
2019-04-06T00:19:25.417Z,1008.2026
2019-04-06T00:19:37.294Z,1008.2079
2019-04-06T00:19:49.240Z,1008.172
2019-04-06T00:20:01.090Z,1008.1632
2019-04-06T00:20:13.006Z,1008.1813
2019-04-06T00:20:24.920Z,1008.2053
2019-04-06T00:20:36.845Z,1008.1751
2019-04-06T00:20:48.738Z,1008.1713
2019-04-06T00:21:00.628Z,1008.1604
2019-04-06T00:21:12.552Z,1008.1768
2019-04-06T00:21:24.495Z,1008.1486
2019-04-06T00:21:36.450Z,1008.1571
2019-04-06T00:21:48.281Z,1008.2042
2019-04-06T00:22:00.217Z,1008.1834
2019-04-06T00:22:12.112Z,1008.1801
2019-04-06T00:22:23.954Z,1008.1751
2019-04-06T00:22:35.803Z,1008.1911
2019-04-06T00:22:47.652Z,1008.1878
2019-04-06T00:22:59.569Z,1008.2003
2019-04-06T00:23:11.461Z,1008.2003
2019-04-06T00:23:23.387Z,1008.1899
2019-04-06T00:23:35.310Z,1008.1942
2019-04-06T00:23:47.155Z,1008.2145
2019-04-06T00:23:59.053Z,1008.1822
2019-04-06T00:24:10.963Z,1008.1347
2019-04-06T00:24:22.894Z,1008.1736
2019-04-06T00:24:34.730Z,1008.2047
2019-04-06T00:24:46.679Z,1008.2084
2019-04-06T00:24:58.603Z,1008.1948
2019-04-06T00:25:10.495Z,1008.2309
2019-04-06T00:25:22.423Z,1008.2019
2019-04-06T00:25:43.694Z,1008.1904
2019-04-06T00:25:47.110Z,1008.1264
2019-04-06T00:25:58.988Z,1008.1752
2019-04-06T00:26:10.829Z,1008.1035
2019-04-06T00:26:22.724Z,1008.1855
2019-04-06T00:26:34.639Z,1008.1587
2019-04-06T00:26:46.476Z,1008.1478
2019-04-06T00:26:58.412Z,1008.1718
2019-04-06T00:27:10.302Z,1008.2062
2019-04-06T00:27:24.630Z,1008.1177
2019-04-06T00:27:36.103Z,1008.1051
2019-04-06T00:27:47.945Z,1008.1751
2019-04-06T00:27:59.873Z,1008.1363
2019-04-06T00:28:11.731Z,1008.1325
2019-04-06T00:28:23.740Z,1008.1177
2019-04-06T00:28:35.620Z,1008.1228
2019-04-06T00:28:47.546Z,1008.1003
2019-04-06T00:28:59.382Z,1008.102
2019-04-06T00:29:11.250Z,1008.0936
2019-04-06T00:29:23.089Z,1008.1242
2019-04-06T00:29:35.021Z,1008.1046
2019-04-06T00:29:46.869Z,1008.1031
2019-04-06T00:29:58.823Z,1008.0876
2019-04-06T00:30:10.724Z,1008.0592
2019-04-06T00:30:22.653Z,1008.1162
2019-04-06T00:30:34.494Z,1008.0937
2019-04-06T00:30:46.357Z,1008.0597
2019-04-06T00:30:58.240Z,1008.0758
2019-04-06T00:31:10.217Z,1008.1035
2019-04-06T00:31:22.069Z,1008.0806
2019-04-06T00:31:33.970Z,1008.1073
2019-04-06T00:31:45.867Z,1008.097
2019-04-06T00:31:57.751Z,1008.1171
2019-04-06T00:32:09.557Z,1008.1007
2019-04-06T00:32:21.409Z,1008.0843
2019-04-06T00:32:33.316Z,1008.0712
2019-04-06T00:32:45.237Z,1008.0669
2019-04-06T00:32:57.098Z,1008.0895
2019-04-06T00:33:09.005Z,1008.0669
2019-04-06T00:33:21.188Z,1008.044
2019-04-06T00:33:33.070Z,1008.0407
2019-04-06T00:33:44.912Z,1008.0658
2019-04-06T00:33:56.952Z,1008.0101
2019-04-06T00:34:08.804Z,1008.0626
2019-04-06T00:34:20.654Z,1008.0176
2019-04-06T00:34:32.631Z,1008.0395
2019-04-06T00:34:44.470Z,1008.0473
2019-04-06T00:34:56.397Z,1008.0072
2019-04-06T00:35:08.329Z,1007.9979
2019-04-06T00:35:20.166Z,1008.0353
2019-04-06T00:35:32.114Z,1008.0161
2019-04-06T00:35:43.970Z,1007.9788
2019-04-06T00:35:55.811Z,1007.9936
2019-04-06T00:36:07.751Z,1007.9859
2019-04-06T00:36:19.588Z,1007.9963
2019-04-06T00:36:31.506Z,1007.9618
2019-04-06T00:36:43.515Z,1008.0083
2019-04-06T00:36:55.358Z,1007.964
2019-04-06T00:37:07.297Z,1008.0148
2019-04-06T00:37:19.282Z,1007.9684
2019-04-06T00:37:31.137Z,1007.9334
2019-04-06T00:37:43.036Z,1007.9776
2019-04-06T00:37:54.951Z,1007.9682
2019-04-06T00:38:06.784Z,1007.9227
2019-04-06T00:38:18.711Z,1007.966
2019-04-06T00:38:30.618Z,1007.9218
2019-04-06T00:38:42.521Z,1007.9321
2019-04-06T00:38:54.478Z,1007.9188
2019-04-06T00:39:06.320Z,1007.9179
2019-04-06T00:39:18.210Z,1007.9529
2019-04-06T00:39:30.078Z,1007.9622
2019-04-06T00:39:41.918Z,1007.9398
2019-04-06T00:39:53.857Z,1007.9353
2019-04-06T00:40:05.698Z,1007.9255
2019-04-06T00:40:17.641Z,1007.931
2019-04-06T00:40:29.536Z,1007.9069
2019-04-06T00:40:41.386Z,1007.9144
2019-04-06T00:40:53.296Z,1007.9581
2019-04-06T00:41:05.134Z,1007.926
2019-04-06T00:41:17.018Z,1007.9018
2019-04-06T00:41:28.964Z,1007.9171
2019-04-06T00:41:40.799Z,1007.9062
2019-04-06T00:41:52.708Z,1007.921
2019-04-06T00:42:04.556Z,1007.9171
2019-04-06T00:42:16.501Z,1007.9171
2019-04-06T00:42:28.427Z,1007.9018
2019-04-06T00:42:41.339Z,1007.9434
2019-04-06T00:42:53.216Z,1007.882
2019-04-06T00:43:05.083Z,1007.9362
2019-04-06T00:43:17.020Z,1007.9461
2019-04-06T00:43:28.897Z,1007.9548
2019-04-06T00:43:40.747Z,1007.9454
2019-04-06T00:43:52.722Z,1007.9749
2019-04-06T00:44:04.562Z,1007.9476
2019-04-06T00:44:16.878Z,1007.9738
2019-04-06T00:44:28.378Z,1007.9132
2019-04-06T00:44:40.285Z,1007.9015
2019-04-06T00:44:52.223Z,1007.9503
2019-04-06T00:45:04.057Z,1007.9667
2019-04-06T00:45:15.905Z,1007.9848
2019-04-06T00:45:27.765Z,1007.9873
2019-04-06T00:45:39.595Z,1007.9312
2019-04-06T00:45:51.525Z,1007.9268
2019-04-06T00:46:03.378Z,1007.965
2019-04-06T00:46:15.309Z,1007.9682
2019-04-06T00:46:27.188Z,1007.9818
2019-04-06T00:46:39.152Z,1007.9184
2019-04-06T00:46:50.979Z,1007.989
2019-04-06T00:47:02.833Z,1007.965
2019-04-06T00:47:14.735Z,1007.944
2019-04-06T00:47:26.663Z,1007.9882
2019-04-06T00:47:38.503Z,1008.0018
2019-04-06T00:47:50.438Z,1007.979
2019-04-06T00:48:02.317Z,1008.0156
2019-04-06T00:48:14.167Z,1007.9657
2019-04-06T00:48:26.041Z,1008.046
2019-04-06T00:48:37.899Z,1008.0411
2019-04-06T00:48:49.815Z,1008.0444
2019-04-06T00:49:01.697Z,1008.052
2019-04-06T00:49:13.579Z,1008.0679
2019-04-06T00:49:25.508Z,1008.0689
2019-04-06T00:49:37.435Z,1008.075
2019-04-06T00:49:49.263Z,1008.1127
2019-04-06T00:50:01.167Z,1008.0825
2019-04-06T00:50:13.027Z,1008.0682
2019-04-06T00:50:24.954Z,1008.1027
2019-04-06T00:50:36.858Z,1008.1076
2019-04-06T00:50:48.697Z,1008.1017
2019-04-06T00:51:00.613Z,1008.0925
2019-04-06T00:51:12.509Z,1008.0925
2019-04-06T00:51:24.366Z,1008.0678
2019-04-06T00:51:36.211Z,1008.106
2019-04-06T00:51:48.072Z,1008.0601
2019-04-06T00:52:00.014Z,1008.0979
2019-04-06T00:52:11.854Z,1008.059
2019-04-06T00:52:23.783Z,1008.1038
2019-04-06T00:52:35.759Z,1008.0645
2019-04-06T00:52:47.594Z,1008.0847
2019-04-06T00:52:59.481Z,1008.0781
2019-04-06T00:53:11.323Z,1008.0507
2019-04-06T00:53:23.160Z,1008.0561
2019-04-06T00:53:35.057Z,1008.0609
2019-04-06T00:53:46.898Z,1008.0401
2019-04-06T00:53:58.883Z,1008.0626
2019-04-06T00:54:10.951Z,1008.0292
2019-04-06T00:54:22.989Z,1008.0621
2019-04-06T00:54:34.963Z,1008.0412
2019-04-06T00:54:46.814Z,1008.0674
2019-04-06T00:54:58.673Z,1008.0477
2019-04-06T00:55:10.536Z,1008.0477
2019-04-06T00:55:22.445Z,1008.0319
2019-04-06T00:55:34.293Z,1008.022
2019-04-06T00:55:55.020Z,1008.027
2019-04-06T00:55:59.143Z,1007.9893
2019-04-06T00:56:11.219Z,1008.0012
2019-04-06T00:56:23.116Z,1007.992
2019-04-06T00:56:35.008Z,1007.9935
2019-04-06T00:56:46.874Z,1008.0051
2019-04-06T00:56:58.719Z,1008.01
2019-04-06T00:57:10.618Z,1007.9968
2019-04-06T00:57:22.585Z,1007.9682
2019-04-06T00:57:34.427Z,1008.0006
2019-04-06T00:57:46.418Z,1007.9946
2019-04-06T00:57:58.323Z,1008.0027
2019-04-06T00:58:10.186Z,1007.9645
2019-04-06T00:58:22.038Z,1007.9829
2019-04-06T00:58:33.890Z,1007.9743
2019-04-06T00:58:45.791Z,1008.0168
2019-04-06T00:58:57.801Z,1008.0031
2019-04-06T00:59:09.662Z,1008.0371
2019-04-06T00:59:21.604Z,1008.0014
2019-04-06T00:59:33.643Z,1008.0195
2019-04-06T00:59:45.489Z,1008.0621
2019-04-06T00:59:57.335Z,1008.0474
2019-04-06T01:00:09.390Z,1008.0353
2019-04-06T01:00:21.236Z,1008.0385
2019-04-06T01:00:33.126Z,1007.9724
2019-04-06T01:00:45.180Z,1007.9985
2019-04-06T01:00:57.023Z,1008.0433
2019-04-06T01:01:08.907Z,1008.0264
2019-04-06T01:01:20.779Z,1007.993
2019-04-06T01:01:32.632Z,1007.9625
2019-04-06T01:01:44.671Z,1007.9562
2019-04-06T01:01:56.624Z,1007.9547
2019-04-06T01:02:08.670Z,1007.9645
2019-04-06T01:02:20.504Z,1007.9355
2019-04-06T01:02:32.364Z,1007.9639
2019-04-06T01:02:44.499Z,1007.954
2019-04-06T01:02:56.295Z,1007.9575
2019-04-06T01:03:08.255Z,1007.9547
2019-04-06T01:03:20.352Z,1007.9796
2019-04-06T01:03:32.071Z,1007.9637
2019-04-06T01:03:44.040Z,1007.9895
2019-04-06T01:03:55.923Z,1008.0108
2019-04-06T01:04:07.786Z,1007.954
2019-04-06T01:04:19.869Z,1007.9953
2019-04-06T01:04:31.601Z,1007.9835
2019-04-06T01:04:43.520Z,1008.0331
2019-04-06T01:04:55.555Z,1008.0007
2019-04-06T01:05:07.411Z,1008.0073
2019-04-06T01:05:19.310Z,1007.986
2019-04-06T01:05:32.156Z,1008.0242
2019-04-06T01:05:44.092Z,1007.9788
2019-04-06T01:05:55.944Z,1007.9728
2019-04-06T01:06:07.835Z,1007.9531
2019-04-06T01:06:19.639Z,1007.9863
2019-04-06T01:06:31.533Z,1007.9945
2019-04-06T01:06:43.468Z,1007.9782
2019-04-06T01:06:55.318Z,1007.9819
2019-04-06T01:07:07.349Z,1007.9754
2019-04-06T01:07:19.211Z,1007.9468
2019-04-06T01:07:31.181Z,1007.9564
2019-04-06T01:07:42.990Z,1007.9354
2019-04-06T01:07:54.828Z,1007.9458
2019-04-06T01:08:06.691Z,1007.9453
2019-04-06T01:08:18.628Z,1007.9735
2019-04-06T01:08:30.462Z,1007.9606
2019-04-06T01:08:42.409Z,1007.9769
2019-04-06T01:08:54.302Z,1007.9675
2019-04-06T01:09:06.142Z,1007.9495
2019-04-06T01:09:18.043Z,1007.9594
2019-04-06T01:09:29.957Z,1007.9533
2019-04-06T01:09:41.807Z,1007.9873
2019-04-06T01:09:53.766Z,1007.9974
2019-04-06T01:10:05.616Z,1007.9713
2019-04-06T01:10:17.587Z,1007.9554
2019-04-06T01:10:29.586Z,1007.9517
2019-04-06T01:10:41.423Z,1007.9974
2019-04-06T01:10:53.266Z,1007.9751
2019-04-06T01:11:05.196Z,1007.9784
2019-04-06T01:11:17.061Z,1008.0078
2019-04-06T01:11:29.905Z,1007.9695
2019-04-06T01:11:41.830Z,1008.0137
2019-04-06T01:11:53.683Z,1008.012
2019-04-06T01:12:05.659Z,1007.9901
2019-04-06T01:12:17.717Z,1008.0114
2019-04-06T01:12:29.576Z,1007.9971
2019-04-06T01:12:41.424Z,1008.0626
2019-04-06T01:12:53.296Z,1008.0538
2019-04-06T01:13:05.129Z,1008.0657
2019-04-06T01:13:17.079Z,1008.0974
2019-04-06T01:13:29.008Z,1008.0881
2019-04-06T01:13:40.869Z,1008.0607
2019-04-06T01:13:52.776Z,1008.1174
2019-04-06T01:14:04.731Z,1008.1017
2019-04-06T01:14:16.596Z,1008.0842
2019-04-06T01:14:28.463Z,1008.1007
2019-04-06T01:14:40.451Z,1008.1091
2019-04-06T01:14:52.331Z,1008.124
2019-04-06T01:15:04.292Z,1008.1245
2019-04-06T01:15:16.258Z,1008.1146
2019-04-06T01:15:28.168Z,1008.0971
2019-04-06T01:15:40.122Z,1008.1052
2019-04-06T01:15:51.988Z,1008.1037
2019-04-06T01:16:03.858Z,1008.1292
2019-04-06T01:16:15.788Z,1008.1484
2019-04-06T01:16:27.628Z,1008.116
2019-04-06T01:16:39.591Z,1008.1224
2019-04-06T01:16:51.528Z,1008.1266
2019-04-06T01:17:03.372Z,1008.1155
2019-04-06T01:17:15.351Z,1008.1319
2019-04-06T01:17:27.459Z,1008.1646
2019-04-06T01:17:39.345Z,1008.1242
2019-04-06T01:17:51.226Z,1008.1554
2019-04-06T01:18:03.198Z,1008.1489
2019-04-06T01:18:15.034Z,1008.157
2019-04-06T01:18:26.910Z,1008.1979
2019-04-06T01:18:38.876Z,1008.2033
2019-04-06T01:18:50.721Z,1008.1885
2019-04-06T01:19:02.663Z,1008.2054
2019-04-06T01:19:14.562Z,1008.1923
2019-04-06T01:19:26.408Z,1008.194
2019-04-06T01:19:38.397Z,1008.1928
2019-04-06T01:19:50.436Z,1008.1752
2019-04-06T01:20:02.284Z,1008.2042
2019-04-06T01:20:14.130Z,1008.2195
2019-04-06T01:20:25.966Z,1008.1932
2019-04-06T01:20:37.878Z,1008.1889
2019-04-06T01:20:49.900Z,1008.1806
2019-04-06T01:21:01.812Z,1008.1741
2019-04-06T01:21:13.677Z,1008.1872
2019-04-06T01:21:25.605Z,1008.1779
2019-04-06T01:21:37.451Z,1008.1843
2019-04-06T01:21:49.297Z,1008.1652
2019-04-06T01:22:02.238Z,1008.1782
2019-04-06T01:22:14.182Z,1008.1281
2019-04-06T01:22:26.105Z,1008.1804
2019-04-06T01:22:38.001Z,1008.2115
2019-04-06T01:22:49.926Z,1008.2395
2019-04-06T01:23:01.761Z,1008.1892
2019-04-06T01:23:13.766Z,1008.2284
2019-04-06T01:23:25.614Z,1008.2223
2019-04-06T01:23:37.468Z,1008.2338
2019-04-06T01:23:49.323Z,1008.2043
2019-04-06T01:24:01.158Z,1008.1962
2019-04-06T01:24:13.132Z,1008.2276
2019-04-06T01:24:25.022Z,1008.2097
2019-04-06T01:24:36.883Z,1008.2163
2019-04-06T01:24:48.921Z,1008.2233
2019-04-06T01:25:01.010Z,1008.2106
2019-04-06T01:25:12.814Z,1008.2107
2019-04-06T01:25:24.800Z,1008.1849
2019-04-06T01:25:36.839Z,1008.2079
2019-04-06T01:25:48.711Z,1008.2002
2019-04-06T01:26:06.856Z,1008.2362
2019-04-06T01:26:13.486Z,1008.2039
2019-04-06T01:26:25.373Z,1008.1914
2019-04-06T01:26:37.221Z,1008.1928
2019-04-06T01:26:49.156Z,1008.2
2019-04-06T01:27:01.195Z,1008.1983
2019-04-06T01:27:13.053Z,1008.1333
2019-04-06T01:27:24.892Z,1008.1643
2019-04-06T01:27:36.960Z,1008.1126
2019-04-06T01:27:48.781Z,1008.1354
2019-04-06T01:28:00.666Z,1008.1146
2019-04-06T01:28:12.672Z,1008.1354
2019-04-06T01:28:24.516Z,1008.1625
2019-04-06T01:28:36.531Z,1008.1556
2019-04-06T01:28:48.472Z,1008.156
2019-04-06T01:29:00.323Z,1008.1401
2019-04-06T01:29:12.328Z,1008.1401
2019-04-06T01:29:25.123Z,1008.15
2019-04-06T01:29:37.209Z,1008.1929
2019-04-06T01:29:49.042Z,1008.1732
2019-04-06T01:30:00.922Z,1008.1721
2019-04-06T01:30:12.961Z,1008.1716
2019-04-06T01:30:24.868Z,1008.1951
2019-04-06T01:30:36.782Z,1008.231
2019-04-06T01:30:48.708Z,1008.1939
2019-04-06T01:31:00.594Z,1008.205
2019-04-06T01:31:12.486Z,1008.1629
2019-04-06T01:31:24.413Z,1008.2234
2019-04-06T01:31:36.259Z,1008.1894
2019-04-06T01:31:48.130Z,1008.1698
2019-04-06T01:31:59.994Z,1008.1702
2019-04-06T01:32:11.825Z,1008.1605
2019-04-06T01:32:23.807Z,1008.2058
2019-04-06T01:32:35.656Z,1008.2042
2019-04-06T01:32:47.579Z,1008.203
2019-04-06T01:32:59.627Z,1008.1755
2019-04-06T01:33:11.483Z,1008.1887
2019-04-06T01:33:23.325Z,1008.181
2019-04-06T01:33:35.204Z,1008.2023
2019-04-06T01:33:47.050Z,1008.21
2019-04-06T01:33:59.356Z,1008.2039
2019-04-06T01:34:10.911Z,1008.2132
2019-04-06T01:34:22.758Z,1008.2011
2019-04-06T01:34:34.769Z,1008.1925
2019-04-06T01:34:46.634Z,1008.2093
2019-04-06T01:34:58.590Z,1008.2056
2019-04-06T01:35:10.429Z,1008.1701
2019-04-06T01:35:22.304Z,1008.1525
2019-04-06T01:35:34.258Z,1008.1345
2019-04-06T01:35:46.229Z,1008.177
2019-04-06T01:35:58.080Z,1008.1684
2019-04-06T01:36:10.013Z,1008.1557
2019-04-06T01:36:21.920Z,1008.1606
2019-04-06T01:36:33.750Z,1008.0748
2019-04-06T01:36:45.599Z,1008.1206
2019-04-06T01:36:57.447Z,1008.1649
2019-04-06T01:37:09.378Z,1008.1048
2019-04-06T01:37:21.301Z,1008.1113
2019-04-06T01:37:33.140Z,1008.1118
2019-04-06T01:37:45.029Z,1008.1395
2019-04-06T01:37:57.149Z,1008.1101
2019-04-06T01:38:09.018Z,1008.1417
2019-04-06T01:38:20.847Z,1008.1258
2019-04-06T01:38:33.676Z,1008.0853
2019-04-06T01:38:45.523Z,1008.1295
2019-04-06T01:38:57.435Z,1008.1279
2019-04-06T01:39:09.423Z,1008.0956
2019-04-06T01:39:21.261Z,1008.1513
2019-04-06T01:39:33.170Z,1008.1203
2019-04-06T01:39:45.004Z,1008.1091
2019-04-06T01:39:56.980Z,1008.121
2019-04-06T01:40:08.849Z,1008.0949
2019-04-06T01:40:20.693Z,1008.1326
2019-04-06T01:40:32.620Z,1008.1199
2019-04-06T01:40:44.534Z,1008.0975
2019-04-06T01:40:56.382Z,1008.1745
2019-04-06T01:41:08.366Z,1008.1045
2019-04-06T01:41:20.234Z,1008.1213
2019-04-06T01:41:32.064Z,1008.1263
2019-04-06T01:41:43.979Z,1008.075
2019-04-06T01:41:55.844Z,1008.1026
2019-04-06T01:42:07.729Z,1008.0933
2019-04-06T01:42:19.842Z,1008.0446
2019-04-06T01:42:32.780Z,1008.1408
2019-04-06T01:42:44.856Z,1008.0628
2019-04-06T01:42:56.663Z,1008.0582
2019-04-06T01:43:08.582Z,1008.0599
2019-04-06T01:43:20.530Z,1008.0697
2019-04-06T01:43:32.638Z,1008.0178
2019-04-06T01:43:44.483Z,1008.0392
2019-04-06T01:43:56.327Z,1008.064
2019-04-06T01:44:08.265Z,1008.0314
2019-04-06T01:44:20.142Z,1008.0281
2019-04-06T01:44:32.098Z,1008.0548
2019-04-06T01:44:44.079Z,1008.0678
2019-04-06T01:44:55.963Z,1008.0498
2019-04-06T01:45:07.896Z,1008.0879
2019-04-06T01:45:19.730Z,1008.0605
2019-04-06T01:45:31.574Z,1008.0752
2019-04-06T01:45:43.463Z,1008.0576
2019-04-06T01:45:55.368Z,1008.0303
2019-04-06T01:46:07.330Z,1008.007
2019-04-06T01:46:19.227Z,1008.0828
2019-04-06T01:46:31.071Z,1007.9932
2019-04-06T01:46:43.015Z,1008.0309
2019-04-06T01:46:55.169Z,1008.0868
2019-04-06T01:47:07.081Z,1008.0373
2019-04-06T01:47:19.004Z,1008.0689
2019-04-06T01:47:31.037Z,1007.9838
2019-04-06T01:47:42.923Z,1008.0018
2019-04-06T01:47:54.866Z,1008.0546
2019-04-06T01:48:06.718Z,1008.08
2019-04-06T01:48:18.560Z,1008.0122
2019-04-06T01:48:30.476Z,1008.0524
2019-04-06T01:48:42.413Z,1008.046
2019-04-06T01:48:54.264Z,1008.0154
2019-04-06T01:49:06.191Z,1008.0645
2019-04-06T01:49:18.053Z,1008.0546
2019-04-06T01:49:29.890Z,1007.9968
2019-04-06T01:49:41.808Z,1007.981
2019-04-06T01:49:53.660Z,1007.9879
2019-04-06T01:50:05.577Z,1008.017
2019-04-06T01:50:17.525Z,1008.0744
2019-04-06T01:50:29.367Z,1007.9732
2019-04-06T01:50:41.430Z,1008.0567
2019-04-06T01:50:53.548Z,1007.9618
2019-04-06T01:51:05.375Z,1008.0513
2019-04-06T01:51:17.229Z,1008.0468
2019-04-06T01:51:29.220Z,1008.0339
2019-04-06T01:51:41.042Z,1007.9946
2019-04-06T01:51:53.828Z,1008.0731
2019-04-06T01:52:05.762Z,1008.0617
2019-04-06T01:52:17.645Z,1008.0179
2019-04-06T01:52:29.504Z,1008.042
2019-04-06T01:52:41.450Z,1008.0797
2019-04-06T01:52:53.578Z,1008.0764
2019-04-06T01:53:05.414Z,1008.0452
2019-04-06T01:53:17.265Z,1008.09
2019-04-06T01:53:29.365Z,1008.0507
2019-04-06T01:53:41.193Z,1008.0915
2019-04-06T01:53:53.157Z,1008.0981
2019-04-06T01:54:05.088Z,1008.0915
2019-04-06T01:54:16.925Z,1008.0845
2019-04-06T01:54:28.858Z,1008.0756
2019-04-06T01:54:40.740Z,1008.0604
2019-04-06T01:54:52.577Z,1008.0523
2019-04-06T01:55:04.563Z,1008.0376
2019-04-06T01:55:16.498Z,1008.0752
2019-04-06T01:55:28.311Z,1008.0441
2019-04-06T01:55:40.316Z,1008.0293
2019-04-06T01:55:52.202Z,1008.0446
2019-04-06T01:56:04.105Z,1008.0523
2019-04-06T01:56:18.614Z,1008.0409
2019-04-06T01:56:29.011Z,1008.0396
2019-04-06T01:56:40.859Z,1008.0621
2019-04-06T01:56:52.697Z,1008.0523
2019-04-06T01:57:04.743Z,1008.0266
2019-04-06T01:57:16.622Z,1008.0572
2019-04-06T01:57:28.496Z,1008.0692
2019-04-06T01:57:40.518Z,1008.0363
2019-04-06T01:57:52.370Z,1008.0424
2019-04-06T01:58:04.300Z,1008.0784
2019-04-06T01:58:16.286Z,1008.0985
2019-04-06T01:58:28.139Z,1008.1099
2019-04-06T01:58:40.047Z,1008.0692
2019-04-06T01:58:52.050Z,1008.0773
2019-04-06T01:59:03.819Z,1008.1165
2019-04-06T01:59:15.737Z,1008.121
2019-04-06T01:59:27.581Z,1008.0692
2019-04-06T01:59:39.454Z,1008.1035
2019-04-06T01:59:51.427Z,1008.0674
2019-04-06T02:00:03.278Z,1008.0968
2019-04-06T02:00:15.229Z,1008.0784
2019-04-06T02:00:27.203Z,1008.0801
2019-04-06T02:00:39.056Z,1008.1406
2019-04-06T02:00:50.905Z,1008.1176
2019-04-06T02:01:02.913Z,1008.1156
2019-04-06T02:01:14.753Z,1008.1206
2019-04-06T02:01:26.777Z,1008.0972
2019-04-06T02:01:38.696Z,1008.0568
2019-04-06T02:01:50.618Z,1008.0779
2019-04-06T02:02:02.472Z,1008.0992
2019-04-06T02:02:14.422Z,1008.0825
2019-04-06T02:02:26.310Z,1008.0868
2019-04-06T02:02:38.195Z,1008.1126
2019-04-06T02:02:50.107Z,1008.1339
2019-04-06T02:03:01.953Z,1008.1126
2019-04-06T02:03:13.873Z,1008.0996
2019-04-06T02:03:26.755Z,1008.0648
2019-04-06T02:03:38.660Z,1008.1073
2019-04-06T02:03:50.551Z,1008.1134
2019-04-06T02:04:02.511Z,1008.0953
2019-04-06T02:04:14.456Z,1008.1276
2019-04-06T02:04:26.307Z,1008.0965
2019-04-06T02:04:38.250Z,1008.0524
2019-04-06T02:04:50.221Z,1008.1096
2019-04-06T02:05:01.985Z,1008.0993
2019-04-06T02:05:14.831Z,1008.0339
2019-04-06T02:05:26.791Z,1008.0552
2019-04-06T02:05:38.584Z,1008.0886
2019-04-06T02:05:50.499Z,1008.0368
2019-04-06T02:06:02.376Z,1008.0172
2019-04-06T02:06:14.217Z,1008.0167
2019-04-06T02:06:26.069Z,1008.0281
2019-04-06T02:06:37.922Z,1008.0003
2019-04-06T02:06:49.947Z,1007.9883
2019-04-06T02:07:01.912Z,1007.9753
2019-04-06T02:07:13.777Z,1008.0092
2019-04-06T02:07:25.704Z,1007.9798
2019-04-06T02:07:37.640Z,1007.9601
2019-04-06T02:07:49.487Z,1007.9834
2019-04-06T02:08:01.429Z,1007.9715
2019-04-06T02:08:13.187Z,1007.9617
2019-04-06T02:08:25.097Z,1007.9597
2019-04-06T02:08:37.108Z,1008.0087
2019-04-06T02:08:48.877Z,1007.9919
2019-04-06T02:09:00.879Z,1008.0128
2019-04-06T02:09:12.833Z,1008.0128
2019-04-06T02:09:24.677Z,1008.0066
2019-04-06T02:09:36.531Z,1008.0193
2019-04-06T02:09:48.703Z,1008.0352
2019-04-06T02:10:00.478Z,1007.988
2019-04-06T02:10:12.402Z,1008.0254
2019-04-06T02:10:24.434Z,1008.0193
2019-04-06T02:10:36.271Z,1008.1055
2019-04-06T02:10:48.252Z,1008.0515
2019-04-06T02:11:00.208Z,1008.0745
2019-04-06T02:11:12.072Z,1008.0723
2019-04-06T02:11:23.997Z,1008.0739
2019-04-06T02:11:35.973Z,1008.0787
2019-04-06T02:11:47.828Z,1008.0902
2019-04-06T02:11:59.693Z,1008.0881
2019-04-06T02:12:11.553Z,1008.0914
2019-04-06T02:12:23.384Z,1008.044
2019-04-06T02:12:35.404Z,1008.0488
2019-04-06T02:12:47.243Z,1008.0374
2019-04-06T02:12:59.153Z,1008.0468
2019-04-06T02:13:11.148Z,1008.019
2019-04-06T02:13:23.095Z,1008.0664
2019-04-06T02:13:34.859Z,1008.0125
2019-04-06T02:13:46.814Z,1007.9818
2019-04-06T02:13:58.655Z,1007.9989
2019-04-06T02:14:10.749Z,1008.007
2019-04-06T02:14:22.696Z,1007.9993
2019-04-06T02:14:34.566Z,1007.9813
2019-04-06T02:14:46.472Z,1007.9693
2019-04-06T02:14:58.417Z,1007.9939
2019-04-06T02:15:10.415Z,1007.9224
2019-04-06T02:15:22.115Z,1007.989
2019-04-06T02:15:33.976Z,1007.989
2019-04-06T02:15:45.826Z,1007.9935
2019-04-06T02:15:57.780Z,1007.9607
2019-04-06T02:16:09.629Z,1007.9841
2019-04-06T02:16:21.571Z,1007.9865
2019-04-06T02:16:33.567Z,1007.9542